Time;durP1;ratioP1;P1;durP2;ratioP2;P2;SDS_P1;SDS_P2;PMS_P1;PMS_P2;Temp;Humidity;BMP_temperature;BMP_pressure;BME280_temperature;BME280_humidity;BME280_pressure;Samples;Min_cycle;Max_cycle;Signal;HPM_P1;HPM_P2
2021/01/21 00:01:59;;;;;;;;;;;;;;;;;;5075191;28;956;-72
2021/01/21 00:04:24;;;;;;;;;;;;;;;;;;5075421;28;912;-72
2021/01/21 00:06:50;;;;;;;;;;;;;;;;;;5074935;28;1361;-72
2021/01/21 00:09:16;;;;;;;;;;;;;;;;;;5075286;28;828;-72
2021/01/21 00:11:41;;;;;;;;;;;;;;;;;;5074979;28;900;-72
2021/01/21 00:14:06;;;;;;;;;;;;;;;;;;5075094;28;858;-72
2021/01/21 00:16:32;;;;;;;;;;;;;;;;;;5073254;28;1413;-72
2021/01/21 00:18:57;;;;;;;;;;;;;;;;;;5074950;28;1968;-72
2021/01/21 00:21:22;;;;;;;;;;;;;;;;;;5073563;28;1531;-72
2021/01/21 00:23:47;;;;;;;;;;;;;;;;;;5074917;28;905;-72
2021/01/21 00:26:13;;;;;;;;;;;;;;;;;;5074718;28;1310;-72
2021/01/21 00:28:38;;;;;;;;;;;;;;;;;;5074484;28;867;-71
2021/01/21 00:31:03;;;;;;;;;;;;;;;;;;5073707;28;1099;-72
2021/01/21 00:33:28;;;;;;;;;;;;;;;;;;5074727;28;904;-72
2021/01/21 00:35:54;;;;;;;;;;;;;;;;;;5074883;28;1309;-71
2021/01/21 00:38:19;;;;;;;;;;;;;;;;;;5074297;28;1901;-71
2021/01/21 00:40:44;;;;;;;;;;;;;;;;;;5074486;28;958;-72
2021/01/21 00:43:09;;;;;;;;;;;;;;;;;;5074667;28;896;-71
2021/01/21 00:45:35;;;;;;;;;;;;;;;;;;5074425;28;1400;-72
2021/01/21 00:48:00;;;;;;;;;;;;;;;;;;5074180;28;1031;-73
2021/01/21 00:50:25;;;;;;;;;;;;;;;;;;5072994;28;1620;-72
2021/01/21 00:52:50;;;;;;;;;;;;;;;;;;5074615;28;817;-71
2021/01/21 00:55:16;;;;;;;;;;;;;;;;;;5072930;28;1397;-71
2021/01/21 00:57:41;;;;;;;;;;;;;;;;;;5074253;28;1963;-72
2021/01/21 01:00:10;;;;;;;;;;;;;;;;;;5073964;28;877;-72
2021/01/21 01:02:35;;;;;;;;;;;;;;;;;;5074438;28;857;-72
2021/01/21 01:05:01;;;;;;;;;;;;;;;;;;5074216;28;1293;-72
2021/01/21 01:07:26;;;;;;;;;;;;;;;;;;5074232;28;1027;-72
2021/01/21 01:09:51;;;;;;;;;;;;;;;;;;5074057;28;944;-72
2021/01/21 01:12:17;;;;;;;;;;;;;;;;;;5072891;28;826;-72
2021/01/21 01:14:42;;;;;;;;;;;;;;;;;;5073866;28;1396;-72
2021/01/21 01:17:07;;;;;;;;;;;;;;;;;;5074175;28;935;-72
2021/01/21 01:19:32;;;;;;;;;;;;;;;;;;5072680;28;1947;-73
2021/01/21 01:21:57;;;;;;;;;;;;;;;;;;5073912;28;1039;-72
2021/01/21 01:24:23;;;;;;;;;;;;;;;;;;5074130;28;810;-72
2021/01/21 01:26:49;;;;;;;;;;;;;;;;;;5073847;28;1291;-71
2021/01/21 01:29:14;;;;;;;;;;;;;;;;;;5073610;28;817;-72
2021/01/21 01:31:40;;;;;;;;;;;;;;;;;;5072497;28;1378;-71
2021/01/21 01:34:05;;;;;;;;;;;;;;;;;;5072536;28;1178;-72
2021/01/21 01:36:30;;;;;;;;;;;;;;;;;;5073836;28;1286;-71
2021/01/21 01:38:55;;;;;;;;;;;;;;;;;;5073952;28;1953;-72
2021/01/21 01:41:20;;;;;;;;;;;;;;;;;;5073711;28;991;-72
2021/01/21 01:43:48;;;;;;;;;;;;;;;;;;5072985;28;877;-72
2021/01/21 01:46:14;;;;;;;;;;;;;;;;;;5072380;28;1349;-72
2021/01/21 01:48:39;;;;;;;;;;;;;;;;;;5073735;28;866;-72
2021/01/21 01:51:04;;;;;;;;;;;;;;;;;;5073779;28;849;-72
2021/01/21 01:53:30;;;;;;;;;;;;;;;;;;5073709;28;888;-72
2021/01/21 01:55:55;;;;;;;;;;;;;;;;;;5073622;28;1322;-71
2021/01/21 01:58:21;;;;;;;;;;;;;;;;;;5072041;28;1951;-71
2021/01/21 02:00:48;;;;;;;;;;;;;;;;;;5073510;28;915;-71
2021/01/21 02:03:13;;;;;;;;;;;;;;;;;;5073756;28;983;-71
2021/01/21 02:05:38;;;;;;;;;;;;;;;;;;5072214;28;1349;-71
2021/01/21 02:08:03;;;;;;;;;;;;;;;;;;5073740;28;805;-72
2021/01/21 02:10:29;;;;;;;;;;;;;;;;;;5073258;28;912;-71
2021/01/21 02:12:54;;;;;;;;;;;;;;;;;;5073567;28;924;-71
2021/01/21 02:15:38;;;;;;;;;;;;;;;;;;5072325;28;1361;-72
2021/01/21 02:18:03;;;;;;;;;;;;;;;;;;5073475;28;1963;-72
2021/01/21 02:20:41;;;;;;;;;;;;;;;;;;5073321;28;987;-71
2021/01/21 02:23:24;;;;;;;;;;;;;;;;;;5073468;28;983;-71
2021/01/21 02:25:51;;;;;;;;;;;;;;;;;;5073345;28;1365;-72
2021/01/21 02:28:41;;;;;;;;;;;;;;;;;;5073517;28;825;-72
2021/01/21 02:31:15;;;;;;;;;;;;;;;;;;5071904;28;1007;-70
2021/01/21 02:33:59;;;;;;;;;;;;;;;;;;5072486;28;840;-70
2021/01/21 02:36:33;;;;;;;;;;;;;;;;;;5072309;28;1420;-70
2021/01/21 02:39:00;;;;;;;;;;;;;;;;;;5073254;28;1953;-71
2021/01/21 02:41:25;;;;;;;;;;;;;;;;;;5075813;28;895;-71
2021/01/21 02:43:54;;;;;;;;;;;;;;;;;;5076903;28;876;-73
2021/01/21 02:46:20;;;;;;;;;;;;;;;;;;5076498;28;1329;-71
2021/01/21 02:48:45;;;;;;;;;;;;;;;;;;5076710;28;868;-72
2021/01/21 02:51:17;;;;;;;;;;;;;;;;;;5075312;28;1404;-71
2021/01/21 02:53:42;;;;;;;;;;;;;;;;;;5076693;28;886;-72
2021/01/21 02:56:09;;;;;;;;;;;;;;;;;;5076553;28;1310;-72
2021/01/21 02:58:37;;;;;;;;;;;;;;;;;;5076391;28;1959;-72
2021/01/21 03:01:03;;;;;;;;;;;;;;;;;;5076457;28;837;-71
2021/01/21 03:03:29;;;;;;;;;;;;;;;;;;5076487;28;880;-72
2021/01/21 03:05:57;;;;;;;;;;;;;;;;;;5076333;28;1372;-72
2021/01/21 03:08:22;;;;;;;;;;;;;;;;;;5076709;28;1111;-72
2021/01/21 03:10:51;;;;;;;;;;;;;;;;;;5076302;28;892;-72
2021/01/21 03:13:16;;;;;;;;;;;;;;;;;;5076573;28;794;-71
2021/01/21 03:15:41;;;;;;;;;;;;;;;;;;5076272;28;1400;-71
2021/01/21 03:18:07;;;;;;;;;;;;;;;;;;5076126;28;1973;-72
2021/01/21 03:20:32;;;;;;;;;;;;;;;;;;5075066;28;1251;-70
2021/01/21 03:22:57;;;;;;;;;;;;;;;;;;5076078;28;821;-72
2021/01/21 03:25:22;;;;;;;;;;;;;;;;;;5076298;28;1278;-72
2021/01/21 03:27:48;;;;;;;;;;;;;;;;;;5074832;28;1312;-72
2021/01/21 03:30:13;;;;;;;;;;;;;;;;;;5074845;28;825;-72
2021/01/21 03:32:38;;;;;;;;;;;;;;;;;;5075840;28;914;-71
2021/01/21 03:35:04;;;;;;;;;;;;;;;;;;5074433;28;1373;-72
2021/01/21 03:37:29;;;;;;;;;;;;;;;;;;5074790;28;1402;-72
2021/01/21 03:39:55;;;;;;;;;;;;;;;;;;5074353;28;1894;-71
2021/01/21 03:42:20;;;;;;;;;;;;;;;;;;5074558;28;1198;-71
2021/01/21 03:44:45;;;;;;;;;;;;;;;;;;5075492;28;1313;-72
2021/01/21 03:47:10;;;;;;;;;;;;;;;;;;5075885;28;817;-71
2021/01/21 03:49:36;;;;;;;;;;;;;;;;;;5074189;28;1373;-71
2021/01/21 03:52:01;;;;;;;;;;;;;;;;;;5075307;28;798;-71
2021/01/21 03:54:26;;;;;;;;;;;;;;;;;;5073956;28;1183;-72
2021/01/21 03:56:52;;;;;;;;;;;;;;;;;;5075512;28;1401;-71
2021/01/21 03:59:17;;;;;;;;;;;;;;;;;;5075702;28;1965;-71
2021/01/21 04:01:42;;;;;;;;;;;;;;;;;;5075122;28;821;-72
2021/01/21 04:04:07;;;;;;;;;;;;;;;;;;5075301;28;885;-72
2021/01/21 04:06:33;;;;;;;;;;;;;;;;;;5073994;28;1404;-72
2021/01/21 04:08:58;;;;;;;;;;;;;;;;;;5074235;28;877;-71
2021/01/21 04:11:23;;;;;;;;;;;;;;;;;;5075107;28;947;-72
2021/01/21 04:13:48;;;;;;;;;;;;;;;;;;5075132;28;948;-72
2021/01/21 04:16:14;;;;;;;;;;;;;;;;;;5074853;28;1318;-72
2021/01/21 04:18:39;;;;;;;;;;;;;;;;;;5073683;28;1898;-72
2021/01/21 04:21:04;;;;;;;;;;;;;;;;;;5073638;28;1547;-71
2021/01/21 04:23:30;;;;;;;;;;;;;;;;;;5075063;28;924;-72
2021/01/21 04:25:55;;;;;;;;;;;;;;;;;;5073468;28;1428;-71
2021/01/21 04:28:20;;;;;;;;;;;;;;;;;;5075033;28;876;-72
2021/01/21 04:30:45;;;;;;;;;;;;;;;;;;5074571;28;899;-72
2021/01/21 04:33:10;;;;;;;;;;;;;;;;;;5073817;28;1118;-72
2021/01/21 04:35:36;;;;;;;;;;;;;;;;;;5074694;28;1380;-71
2021/01/21 04:38:01;;;;;;;;;;;;;;;;;;5074683;28;1890;-72
2021/01/21 04:40:26;;;;;;;;;;;;;;;;;;5074323;28;887;-72
2021/01/21 04:42:52;;;;;;;;;;;;;;;;;;5073314;28;1315;-73
2021/01/21 04:45:17;;;;;;;;;;;;;;;;;;5073136;28;1365;-72
2021/01/21 04:47:42;;;;;;;;;;;;;;;;;;5074284;28;1042;-72
2021/01/21 04:50:08;;;;;;;;;;;;;;;;;;5074343;28;924;-73
2021/01/21 04:52:35;;;;;;;;;;;;;;;;;;5074453;28;889;-72
2021/01/21 04:55:09;;;;;;;;;;;;;;;;;;5074369;28;1298;-73
2021/01/21 04:57:55;;;;;;;;;;;;;;;;;;5074262;28;1890;-71
2021/01/21 05:00:21;;;;;;;;;;;;;;;;;;5074086;28;843;-73
2021/01/21 05:02:48;;;;;;;;;;;;;;;;;;5073783;28;1020;-71
2021/01/21 05:05:14;;;;;;;;;;;;;;;;;;5074256;28;1282;-71
2021/01/21 05:07:39;;;;;;;;;;;;;;;;;;5074174;28;937;-71
2021/01/21 05:10:08;;;;;;;;;;;;;;;;;;5073965;28;816;-73
2021/01/21 05:12:34;;;;;;;;;;;;;;;;;;5072770;28;1620;-72
2021/01/21 05:14:59;;;;;;;;;;;;;;;;;;5074144;28;1324;-72
2021/01/21 05:17:25;;;;;;;;;;;;;;;;;;5074020;28;935;-71
2021/01/21 05:19:53;;;;;;;;;;;;;;;;;;5073982;28;1957;-71
2021/01/21 05:22:19;;;;;;;;;;;;;;;;;;5073924;28;828;-72
2021/01/21 05:24:45;;;;;;;;;;;;;;;;;;5074031;28;1334;-72
2021/01/21 05:27:10;;;;;;;;;;;;;;;;;;5074080;28;840;-71
2021/01/21 05:29:36;;;;;;;;;;;;;;;;;;5073958;28;1058;-72
2021/01/21 05:32:04;;;;;;;;;;;;;;;;;;5072691;28;928;-71
2021/01/21 05:34:31;;;;;;;;;;;;;;;;;;5073910;28;1314;-72
2021/01/21 05:36:56;;;;;;;;;;;;;;;;;;5073706;28;868;-73
2021/01/21 05:39:21;;;;;;;;;;;;;;;;;;5072501;28;1914;-72
2021/01/21 05:41:46;;;;;;;;;;;;;;;;;;5073701;28;835;-72
2021/01/21 05:44:12;;;;;;;;;;;;;;;;;;5073801;28;888;-71
2021/01/21 05:46:37;;;;;;;;;;;;;;;;;;5072466;28;1456;-71
2021/01/21 05:49:03;;;;;;;;;;;;;;;;;;5073763;28;924;-72
2021/01/21 05:51:28;;;;;;;;;;;;;;;;;;5073671;28;879;-72
2021/01/21 05:53:54;;;;;;;;;;;;;;;;;;5073744;28;853;-71
2021/01/21 05:56:21;;;;;;;;;;;;;;;;;;5073691;28;1266;-73
2021/01/21 05:58:48;;;;;;;;;;;;;;;;;;5073642;28;1885;-72
2021/01/21 06:01:13;;;;;;;;;;;;;;;;;;5073516;28;924;-72
2021/01/21 06:03:40;;;;;;;;;;;;;;;;;;5073754;28;862;-73
2021/01/21 06:06:05;;;;;;;;;;;;;;;;;;5072281;28;1326;-71
2021/01/21 06:08:31;;;;;;;;;;;;;;;;;;5073539;28;973;-72
2021/01/21 06:10:57;;;;;;;;;;;;;;;;;;5072128;28;1190;-72
2021/01/21 06:13:22;;;;;;;;;;;;;;;;;;5073611;28;928;-73
2021/01/21 06:15:48;;;;;;;;;;;;;;;;;;5075669;28;1420;-74
2021/01/21 06:18:14;;;;;;;;;;;;;;;;;;5077369;28;1894;-72
2021/01/21 06:20:39;;;;;;;;;;;;;;;;;;5076132;28;1392;-72
2021/01/21 06:23:04;;;;;;;;;;;;;;;;;;5076184;28;968;-74
2021/01/21 06:25:30;;;;;;;;;;;;;;;;;;5077041;28;1274;-72
2021/01/21 06:27:56;;;;;;;;;;;;;;;;;;5077322;28;1055;-73
2021/01/21 06:30:21;;;;;;;;;;;;;;;;;;5076720;28;881;-71
2021/01/21 06:33:01;;;;;;;;;;;;;;;;;;5077205;28;868;-72
2021/01/21 06:35:30;;;;;;;;;;;;;;;;;;5075606;28;1377;-73
2021/01/21 06:37:59;;;;;;;;;;;;;;;;;;5075483;28;1964;-69
2021/01/21 06:40:25;;;;;;;;;;;;;;;;;;5076682;28;838;-71
2021/01/21 06:42:59;;;;;;;;;;;;;;;;;;5076864;28;718;-69
2021/01/21 06:45:24;;;;;;;;;;;;;;;;;;5076483;28;1353;-69
2021/01/21 06:47:50;;;;;;;;;;;;;;;;;;5075512;28;889;-69
2021/01/21 06:50:15;;;;;;;;;;;;;;;;;;5076698;28;861;-69
2021/01/21 06:52:41;;;;;;;;;;;;;;;;;;5075576;28;1367;-70
2021/01/21 06:55:10;;;;;;;;;;;;;;;;;;5076753;28;1321;-71
2021/01/21 06:57:35;;;;;;;;;;;;;;;;;;5076397;28;833;-72
2021/01/21 07:00:06;;;;;;;;;;;;;;;;;;5076647;28;1902;-72
2021/01/21 07:02:41;;;;;;;;;;;;;;;;;;5076663;28;947;-73
2021/01/21 07:05:24;;;;;;;;;;;;;;;;;;5076446;28;1317;-73
2021/01/21 07:07:53;;;;;;;;;;;;;;;;;;5075254;28;1230;-73
2021/01/21 07:10:37;;;;;;;;;;;;;;;;;;5076482;28;864;-71
2021/01/21 07:13:04;;;;;;;;;;;;;;;;;;5076264;28;855;-73
2021/01/21 07:15:32;;;;;;;;;;;;;;;;;;5076156;28;1278;-73
2021/01/21 07:18:01;;;;;;;;;;;;;;;;;;5075009;28;1909;-72
2021/01/21 07:20:29;;;;;;;;;;;;;;;;;;5074662;28;1396;-73
2021/01/21 07:22:58;;;;;;;;;;;;;;;;;;5075172;28;939;-72
2021/01/21 07:25:29;;;;;;;;;;;;;;;;;;5074728;28;1298;-73
2021/01/21 07:27:54;;;;;;;;;;;;;;;;;;5075874;28;876;-72
2021/01/21 07:30:21;;;;;;;;;;;;;;;;;;5074628;28;964;-73
2021/01/21 07:32:46;;;;;;;;;;;;;;;;;;5075881;28;833;-72
2021/01/21 07:35:35;;;;;;;;;;;;;;;;;;5074670;28;1543;-72
2021/01/21 07:38:00;;;;;;;;;;;;;;;;;;5071542;28;1943;-72
2021/01/21 07:40:46;;;;;;;;;;;;;;;;;;5074297;28;1384;-72
2021/01/21 07:43:11;;;;;;;;;;;;;;;;;;5075618;28;868;-73
2021/01/21 07:45:37;;;;;;;;;;;;;;;;;;5074281;28;1484;-73
2021/01/21 07:48:21;;;;;;;;;;;;;;;;;;5075796;28;813;-73
2021/01/21 07:50:46;;;;;;;;;;;;;;;;;;5073928;28;1072;-71
2021/01/21 07:53:19;;;;;;;;;;;;;;;;;;5074283;28;1416;-72
2021/01/21 07:55:46;;;;;;;;;;;;;;;;;;5074371;28;1399;-72
2021/01/21 07:58:15;;;;;;;;;;;;;;;;;;5074098;28;1897;-72
2021/01/21 08:00:41;;;;;;;;;;;;;;;;;;5073949;28;1725;-73
2021/01/21 08:03:06;;;;;;;;;;;;;;;;;;5073931;28;1300;-72
2021/01/21 08:05:31;;;;;;;;;;;;;;;;;;5073891;28;1294;-73
2021/01/21 08:07:57;;;;;;;;;;;;;;;;;;5075196;28;1027;-72
2021/01/21 08:10:26;;;;;;;;;;;;;;;;;;5075259;28;809;-71
2021/01/21 08:12:55;;;;;;;;;;;;;;;;;;5075196;28;936;-73
2021/01/21 08:15:21;;;;;;;;;;;;;;;;;;5074981;28;1372;-73
2021/01/21 08:17:49;;;;;;;;;;;;;;;;;;5075052;28;1943;-71
2021/01/21 08:20:14;;;;;;;;;;;;;;;;;;5075098;28;904;-70
2021/01/21 08:22:53;;;;;;;;;;;;;;;;;;5073638;28;2326;-70
2021/01/21 08:25:18;;;;;;;;;;;;;;;;;;5073384;28;1679;-70
2021/01/21 08:27:44;;;;;;;;;;;;;;;;;;5074936;28;963;-70
2021/01/21 08:30:28;;;;;;;;;;;;;;;;;;5074700;28;944;-70
2021/01/21 08:32:57;;;;;;;;;;;;;;;;;;5074616;28;872;-70
2021/01/21 08:35:24;;;;;;;;;;;;;;;;;;5073476;28;1373;-71
2021/01/21 08:37:50;;;;;;;;;;;;;;;;;;5072343;28;1973;-70
2021/01/21 08:40:16;;;;;;;;;;;;;;;;;;5074499;28;899;-70
2021/01/21 08:42:43;;;;;;;;;;;;;;;;;;5074610;28;896;-70
2021/01/21 08:45:09;;;;;;;;;;;;;;;;;;5073089;28;1349;-71
2021/01/21 08:47:41;;;;;;;;;;;;;;;;;;5073566;28;928;-70
2021/01/21 08:50:07;;;;;;;;;;;;;;;;;;5074512;28;968;-70
2021/01/21 08:52:32;;;;;;;;;;;;;;;;;;5074334;28;858;-71
2021/01/21 08:54:58;;;;;;;;;;;;;;;;;;5073075;28;1309;-71
2021/01/21 08:57:24;;;;;;;;;;;;;;;;;;5074341;28;837;-69
2021/01/21 08:59:50;;;;;;;;;;;;;;;;;;5074183;28;1969;-70
2021/01/21 09:02:35;;;;;;;;;;;;;;;;;;5074117;28;980;-71
2021/01/21 09:05:04;;;;;;;;;;;;;;;;;;5072943;28;1361;-71
2021/01/21 09:07:29;;;;;;;;;;;;;;;;;;5074316;28;911;-71
2021/01/21 09:09:55;;;;;;;;;;;;;;;;;;5074011;28;813;-71
2021/01/21 09:12:24;;;;;;;;;;;;;;;;;;5074087;28;912;-70
2021/01/21 09:15:00;;;;;;;;;;;;;;;;;;5074075;28;1302;-71
2021/01/21 09:17:26;;;;;;;;;;;;;;;;;;5072799;28;1444;-71
2021/01/21 09:19:51;;;;;;;;;;;;;;;;;;5073635;28;1961;-71
2021/01/21 09:22:17;;;;;;;;;;;;;;;;;;5072730;28;767;-71
2021/01/21 09:24:58;;;;;;;;;;;;;;;;;;5074073;28;1302;-70
2021/01/21 09:27:24;;;;;;;;;;;;;;;;;;5072799;28;1313;-70
2021/01/21 09:29:53;;;;;;;;;;;;;;;;;;5073986;28;814;-71
2021/01/21 09:32:22;;;;;;;;;;;;;;;;;;5073760;28;892;-70
2021/01/21 09:34:51;;;;;;;;;;;;;;;;;;5072591;28;1365;-71
2021/01/21 09:37:16;;;;;;;;;;;;;;;;;;5072620;28;1390;-71
2021/01/21 09:39:41;;;;;;;;;;;;;;;;;;5073694;28;1972;-70
2021/01/21 09:42:07;;;;;;;;;;;;;;;;;;5072458;28;1217;-71
2021/01/21 09:44:32;;;;;;;;;;;;;;;;;;5073776;28;1404;-70
2021/01/21 09:46:57;;;;;;;;;;;;;;;;;;5072760;28;1123;-71
2021/01/21 09:49:22;;;;;;;;;;;;;;;;;;5075372;28;912;-71
2021/01/21 09:51:48;;;;;;;;;;;;;;;;;;5077707;28;829;-71
2021/01/21 09:54:13;;;;;;;;;;;;;;;;;;5076895;28;1454;-71
2021/01/21 09:56:38;;;;;;;;;;;;;;;;;;5076280;28;1337;-71
2021/01/21 09:59:03;;;;;;;;;;;;;;;;;;5077733;28;1905;-71
2021/01/21 10:01:29;;;;;;;;;;;;;;;;;;5076551;28;1423;-71
2021/01/21 10:03:54;;;;;;;;;;;;;;;;;;5077800;28;806;-70
2021/01/21 10:06:19;;;;;;;;;;;;;;;;;;5077526;28;1274;-70
2021/01/21 10:08:44;;;;;;;;;;;;;;;;;;5077385;28;904;-70
2021/01/21 10:11:10;;;;;;;;;;;;;;;;;;5077320;28;877;-71
2021/01/21 10:13:35;;;;;;;;;;;;;;;;;;5077662;28;878;-70
2021/01/21 10:16:00;;;;;;;;;;;;;;;;;;5076004;28;1432;-70
2021/01/21 10:18:25;;;;;;;;;;;;;;;;;;5077439;28;1905;-70
2021/01/21 10:20:51;;;;;;;;;;;;;;;;;;5077008;28;865;-70
2021/01/21 10:23:16;;;;;;;;;;;;;;;;;;5077270;28;818;-70
2021/01/21 10:25:41;;;;;;;;;;;;;;;;;;5077276;28;1322;-70
2021/01/21 10:28:06;;;;;;;;;;;;;;;;;;5076266;28;1124;-70
2021/01/21 10:30:32;;;;;;;;;;;;;;;;;;5076970;28;849;-70
2021/01/21 10:32:57;;;;;;;;;;;;;;;;;;5077119;28;988;-70
2021/01/21 10:35:22;;;;;;;;;;;;;;;;;;5075633;28;1586;-70
2021/01/21 10:37:48;;;;;;;;;;;;;;;;;;5077294;28;849;-70
2021/01/21 10:40:13;;;;;;;;;;;;;;;;;;5076663;28;853;-70
2021/01/21 10:42:39;;;;;;;;;;;;;;;;;;5076913;28;893;-70
2021/01/21 10:45:04;;;;;;;;;;;;;;;;;;5076965;28;1313;-70
2021/01/21 10:47:29;;;;;;;;;;;;;;;;;;5076817;28;997;-70
2021/01/21 10:49:55;;;;;;;;;;;;;;;;;;5076741;28;892;-71
2021/01/21 10:52:20;;;;;;;;;;;;;;;;;;5075648;28;2315;-71
2021/01/21 10:54:45;;;;;;;;;;;;;;;;;;5076842;28;1364;-70
2021/01/21 10:57:11;;;;;;;;;;;;;;;;;;5076669;28;955;-71
2021/01/21 10:59:36;;;;;;;;;;;;;;;;;;5074898;28;2222;-71
2021/01/21 11:02:01;;;;;;;;;;;;;;;;;;5075524;28;797;-71
2021/01/21 11:04:28;;;;;;;;;;;;;;;;;;5076486;28;979;-71
2021/01/21 11:06:53;;;;;;;;;;;;;;;;;;5074964;28;1182;-71
2021/01/21 11:09:25;;;;;;;;;;;;;;;;;;5076457;28;987;-71
2021/01/21 11:11:51;;;;;;;;;;;;;;;;;;5076453;28;896;-71
2021/01/21 11:14:16;;;;;;;;;;;;;;;;;;5075354;28;865;-71
2021/01/21 11:16:42;;;;;;;;;;;;;;;;;;5075000;28;1463;-72
2021/01/21 11:19:07;;;;;;;;;;;;;;;;;;5075143;28;1956;-71
2021/01/21 11:21:32;;;;;;;;;;;;;;;;;;5074952;28;1298;-71
2021/01/21 11:23:58;;;;;;;;;;;;;;;;;;5076169;28;939;-69
2021/01/21 11:26:23;;;;;;;;;;;;;;;;;;5076026;28;1409;-71
2021/01/21 11:28:48;;;;;;;;;;;;;;;;;;5076355;28;817;-69
2021/01/21 11:31:13;;;;;;;;;;;;;;;;;;5075913;28;801;-70
2021/01/21 11:33:40;;;;;;;;;;;;;;;;;;5074563;28;1339;-71
2021/01/21 11:36:06;;;;;;;;;;;;;;;;;;5068830;28;2231;-72
2021/01/21 11:38:31;;;;;;;;;;;;;;;;;;5074822;28;1894;-72
2021/01/21 11:40:56;;;;;;;;;;;;;;;;;;5075837;28;944;-70
2021/01/21 11:43:21;;;;;;;;;;;;;;;;;;5074525;28;1179;-73
2021/01/21 11:45:47;;;;;;;;;;;;;;;;;;5075781;28;1416;-72
2021/01/21 11:48:13;;;;;;;;;;;;;;;;;;5075559;28;818;-70
2021/01/21 11:50:39;;;;;;;;;;;;;;;;;;5074206;28;805;-71
2021/01/21 11:53:04;;;;;;;;;;;;;;;;;;5075963;28;856;-72
2021/01/21 11:55:30;;;;;;;;;;;;;;;;;;5075346;28;1341;-72
2021/01/21 11:57:55;;;;;;;;;;;;;;;;;;5074509;28;1943;-71
2021/01/21 12:00:20;;;;;;;;;;;;;;;;;;5075357;28;877;-72
2021/01/21 12:02:45;;;;;;;;;;;;;;;;;;5075444;28;948;-72
2021/01/21 12:05:11;;;;;;;;;;;;;;;;;;5075274;28;1313;-70
2021/01/21 12:07:36;;;;;;;;;;;;;;;;;;5075429;28;1001;-71
2021/01/21 12:10:03;;;;;;;;;;;;;;;;;;5075026;28;880;-72
2021/01/21 12:12:28;;;;;;;;;;;;;;;;;;5074996;28;889;-72
2021/01/21 12:14:53;;;;;;;;;;;;;;;;;;5075107;28;1419;-71
2021/01/21 12:17:18;;;;;;;;;;;;;;;;;;5075194;28;905;-72
2021/01/21 12:19:44;;;;;;;;;;;;;;;;;;5073297;28;2193;-71
2021/01/21 12:22:09;;;;;;;;;;;;;;;;;;5073769;28;1278;-71
2021/01/21 12:24:35;;;;;;;;;;;;;;;;;;5073646;28;1353;-72
2021/01/21 12:27:00;;;;;;;;;;;;;;;;;;5074856;28;809;-71
2021/01/21 12:29:25;;;;;;;;;;;;;;;;;;5075091;28;821;-70
2021/01/21 12:31:50;;;;;;;;;;;;;;;;;;5074609;28;987;-72
2021/01/21 12:34:16;;;;;;;;;;;;;;;;;;5073163;28;1362;-70
2021/01/21 12:36:41;;;;;;;;;;;;;;;;;;5074728;28;1441;-72
2021/01/21 12:39:06;;;;;;;;;;;;;;;;;;5073358;28;1902;-72
2021/01/21 12:41:32;;;;;;;;;;;;;;;;;;5073319;28;888;-70
2021/01/21 12:43:57;;;;;;;;;;;;;;;;;;5074492;28;849;-70
2021/01/21 12:46:24;;;;;;;;;;;;;;;;;;5074623;28;1274;-71
2021/01/21 12:48:50;;;;;;;;;;;;;;;;;;5074530;28;837;-70
2021/01/21 12:51:15;;;;;;;;;;;;;;;;;;5074320;28;857;-69
2021/01/21 12:53:40;;;;;;;;;;;;;;;;;;5074253;28;814;-70
2021/01/21 12:56:05;;;;;;;;;;;;;;;;;;5074455;28;1393;-70
2021/01/21 12:58:31;;;;;;;;;;;;;;;;;;5074359;28;1902;-71
2021/01/21 13:00:56;;;;;;;;;;;;;;;;;;5074075;28;1152;-71
2021/01/21 13:03:21;;;;;;;;;;;;;;;;;;5074196;28;928;-71
2021/01/21 13:05:47;;;;;;;;;;;;;;;;;;5074236;28;1397;-71
2021/01/21 13:08:12;;;;;;;;;;;;;;;;;;5074030;28;888;-70
2021/01/21 13:10:37;;;;;;;;;;;;;;;;;;5074142;28;770;-69
2021/01/21 13:13:02;;;;;;;;;;;;;;;;;;5074169;28;821;-71
2021/01/21 13:15:28;;;;;;;;;;;;;;;;;;5074117;28;1306;-72
2021/01/21 13:17:53;;;;;;;;;;;;;;;;;;5072654;28;830;-71
2021/01/21 13:20:18;;;;;;;;;;;;;;;;;;5073722;28;1939;-72
2021/01/21 13:22:43;;;;;;;;;;;;;;;;;;5072819;28;1003;-71
2021/01/21 13:25:09;;;;;;;;;;;;;;;;;;5073439;28;1337;-70
2021/01/21 13:27:34;;;;;;;;;;;;;;;;;;5074005;28;832;-71
2021/01/21 13:30:00;;;;;;;;;;;;;;;;;;5073678;28;1266;-72
2021/01/21 13:32:25;;;;;;;;;;;;;;;;;;5073846;28;977;-70
2021/01/21 13:34:50;;;;;;;;;;;;;;;;;;5073732;28;1294;-71
2021/01/21 13:37:15;;;;;;;;;;;;;;;;;;5074150;28;821;-71
2021/01/21 13:39:44;;;;;;;;;;;;;;;;;;5073164;28;1949;-68
2021/01/21 13:42:10;;;;;;;;;;;;;;;;;;5073763;28;838;-68
2021/01/21 13:44:39;;;;;;;;;;;;;;;;;;5073901;28;1301;-70
2021/01/21 13:47:06;;;;;;;;;;;;;;;;;;5073824;28;1107;-72
2021/01/21 13:49:31;;;;;;;;;;;;;;;;;;5073883;28;846;-70
2021/01/21 13:51:59;;;;;;;;;;;;;;;;;;5073632;28;845;-72
2021/01/21 13:54:25;;;;;;;;;;;;;;;;;;5073915;28;958;-71
2021/01/21 13:56:50;;;;;;;;;;;;;;;;;;5073462;28;1314;-72
2021/01/21 13:59:16;;;;;;;;;;;;;;;;;;5073647;28;1898;-69
2021/01/21 14:01:41;;;;;;;;;;;;;;;;;;5063647;28;911;-71
2021/01/21 14:04:06;;;;;;;;;;;;;;;;;;5070434;28;980;-70
2021/01/21 14:06:32;;;;;;;;;;;;;;;;;;5073428;28;1306;-70
2021/01/21 14:09:00;;;;;;;;;;;;;;;;;;5073605;28;957;-69
2021/01/21 14:11:25;;;;;;;;;;;;;;;;;;5071982;28;1066;-73
2021/01/21 14:13:51;;;;;;;;;;;;;;;;;;5072178;28;1186;-69
2021/01/21 14:16:16;;;;;;;;;;;;;;;;;;5073370;28;1297;-70
2021/01/21 14:18:41;;;;;;;;;;;;;;;;;;5072015;28;1963;-70
2021/01/21 14:21:06;;;;;;;;;;;;;;;;;;5073256;28;959;-73
2021/01/21 14:23:32;;;;;;;;;;;;;;;;;;5072150;28;1395;-71
2021/01/21 14:25:58;;;;;;;;;;;;;;;;;;5073272;28;1425;-70
2021/01/21 14:28:23;;;;;;;;;;;;;;;;;;5073626;28;856;-73
2021/01/21 14:30:48;;;;;;;;;;;;;;;;;;5071907;28;959;-72
2021/01/21 14:33:14;;;;;;;;;;;;;;;;;;5072182;28;1636;-70
2021/01/21 14:35:39;;;;;;;;;;;;;;;;;;5073865;28;1360;-72
2021/01/21 14:38:04;;;;;;;;;;;;;;;;;;5076748;28;1969;-72
2021/01/21 14:40:30;;;;;;;;;;;;;;;;;;5077230;28;727;-71
2021/01/21 14:42:56;;;;;;;;;;;;;;;;;;5075633;28;1471;-70
2021/01/21 14:45:21;;;;;;;;;;;;;;;;;;5076826;28;1333;-70
2021/01/21 14:47:46;;;;;;;;;;;;;;;;;;5076853;28;896;-69
2021/01/21 14:50:11;;;;;;;;;;;;;;;;;;5075171;28;1308;-69
2021/01/21 14:52:37;;;;;;;;;;;;;;;;;;5076926;28;848;-69
2021/01/21 14:55:17;;;;;;;;;;;;;;;;;;5076790;28;1301;-69
2021/01/21 14:57:42;;;;;;;;;;;;;;;;;;5076613;28;844;-72
2021/01/21 15:00:08;;;;;;;;;;;;;;;;;;5076347;28;1948;-70
2021/01/21 15:02:33;;;;;;;;;;;;;;;;;;5076750;28;854;-71
2021/01/21 15:04:58;;;;;;;;;;;;;;;;;;5075223;28;1513;-71
2021/01/21 15:10:35;;;;;;;;;;;;;;;;;;5053852;28;1205;-74
2021/01/21 15:13:35;;;;;;;;;;;;;;;;;;5073569;28;1013;-75
2021/01/21 15:16:37;;;;;;;;;;;;;;;;;;5076178;28;1345;-75
2021/01/21 15:19:22;;;;;;;;;;;;;;;;;;;;;
2021/01/21 15:21:47;;;;;;;;;;;;;;;;;;5076023;28;720;-70
2021/01/21 15:24:21;;;;;;;;;;;;;;;;;;5075932;28;873;-71
2021/01/21 15:27:25;;;;;;;;;;;;;;;;;;;;;
2021/01/21 15:42:38;;;;;;;;;;;;;;;;;;4954947;28;1212;-70
2021/01/21 15:45:03;;;;;;;;;;;;;;;;;;4974695;28;1307;-69
2021/01/21 15:47:28;;;;;;;;;;;;;;;;;;5015819;28;1134;-72
2021/01/21 15:49:54;;;;;;;;;;;;;;;;;;5055431;28;889;-71
2021/01/21 15:52:19;;;;;;;;;;;;;;;;;;5054294;28;1407;-69
2021/01/21 15:54:44;;;;;;;;;;;;;;;;;;5055494;28;1310;-71
2021/01/21 15:57:09;;;;;;;;;;;;;;;;;;5054608;28;870;-72
2021/01/21 15:59:35;;;;;;;;;;;;;;;;;;5055302;28;1897;-70
2021/01/21 16:02:00;;;;;;;;;;;;;;;;;;5055214;28;818;-71
2021/01/21 16:04:26;;;;;;;;;;;;;;;;;;5054115;28;1202;-68
2021/01/21 16:06:51;;;;;;;;;;;;;;;;;;5055335;28;1325;-71
2021/01/21 16:09:16;;;;;;;;;;;;;;;;;;5054352;28;929;-70
2021/01/21 16:11:41;;;;;;;;;;;;;;;;;;5055173;28;944;-71
2021/01/21 16:14:07;;;;;;;;;;;;;;;;;;5054202;28;1105;-70
2021/01/21 16:16:34;;;;;;;;;;;;;;;;;;5054887;28;1416;-69
2021/01/21 16:19:00;;;;;;;;;;;;;;;;;;5053717;28;1894;-70
2021/01/21 16:21:27;;;;;;;;;;;;;;;;;;5054990;28;895;-71
2021/01/21 16:23:52;;;;;;;;;;;;;;;;;;5055032;28;877;-68
2021/01/21 16:26:17;;;;;;;;;;;;;;;;;;5054753;28;1294;-68
2021/01/21 16:28:42;;;;;;;;;;;;;;;;;;5055237;28;876;-70
2021/01/21 16:31:08;;;;;;;;;;;;;;;;;;5053450;28;1246;-68
2021/01/21 16:33:34;;;;;;;;;;;;;;;;;;5053578;28;1376;-70
2021/01/21 16:35:59;;;;;;;;;;;;;;;;;;5054508;28;1325;-70
2021/01/21 16:38:25;;;;;;;;;;;;;;;;;;5054969;28;1890;-71
2021/01/21 16:40:50;;;;;;;;;;;;;;;;;;5053272;28;1542;-71
2021/01/21 16:43:16;;;;;;;;;;;;;;;;;;5053760;28;1011;-73
2021/01/21 16:45:41;;;;;;;;;;;;;;;;;;5054561;28;1266;-72
2021/01/21 16:48:06;;;;;;;;;;;;;;;;;;5053544;28;1318;-72
2021/01/21 16:50:32;;;;;;;;;;;;;;;;;;5053046;28;1167;-72
2021/01/21 16:52:57;;;;;;;;;;;;;;;;;;5053513;28;881;-73
2021/01/21 16:55:22;;;;;;;;;;;;;;;;;;5054500;28;1396;-70
2021/01/21 16:57:47;;;;;;;;;;;;;;;;;;5054440;28;809;-71
2021/01/21 17:00:13;;;;;;;;;;;;;;;;;;5052013;28;1893;-74
2021/01/21 17:02:38;;;;;;;;;;;;;;;;;;5052957;28;1059;-73
2021/01/21 17:05:04;;;;;;;;;;;;;;;;;;5054512;28;1424;-73
2021/01/21 17:07:29;;;;;;;;;;;;;;;;;;5054522;28;1164;-75
2021/01/21 17:09:54;;;;;;;;;;;;;;;;;;5054351;28;872;-74
2021/01/21 17:12:20;;;;;;;;;;;;;;;;;;5054350;28;810;-71
2021/01/21 17:14:45;;;;;;;;;;;;;;;;;;5052616;28;1436;-72
2021/01/21 17:17:10;;;;;;;;;;;;;;;;;;5052728;28;1411;-73
2021/01/21 17:19:35;;;;;;;;;;;;;;;;;;5053907;28;1902;-74
2021/01/21 17:22:01;;;;;;;;;;;;;;;;;;5054084;28;940;-72
2021/01/21 17:24:26;;;;;;;;;;;;;;;;;;5052958;28;932;-74
2021/01/21 17:26:52;;;;;;;;;;;;;;;;;;5053746;28;1408;-73